Time;durP1;ratioP1;P1;durP2;ratioP2;P2;SDS_P1;SDS_P2;PMS_P1;PMS_P2;Temp;Humidity;BMP_temperature;BMP_pressure;BME280_temperature;BME280_humidity;BME280_pressure;Samples;Min_cycle;Max_cycle;Signal;HPM_P1;HPM_P2
2022/10/08 00:04:10;;;;;;;3.67;1.10;;;;;;;;;;10277001;28;20047;-86
2022/10/08 00:09:14;;;;;;;2.15;1.17;;;;;;;;;;10277044;28;20057;-87
2022/10/08 00:14:17;;;;;;;3.80;1.92;;;;;;;;;;10275540;28;20096;-86
2022/10/08 00:19:22;;;;;;;3.45;1.33;;;;;;;;;;10281473;28;20129;-87
2022/10/08 00:24:26;;;;;;;3.85;1.30;;;;;;;;;;10299050;28;20043;-87
2022/10/08 00:29:32;;;;;;;2.22;1.15;;;;;;;;;;10259752;28;20047;-87
2022/10/08 00:34:38;;;;;;;1.80;1.20;;;;;;;;;;10285261;28;20036;-87
2022/10/08 00:39:43;;;;;;;2.05;1.15;;;;;;;;;;10289737;28;20074;-87
2022/10/08 00:44:54;;;;;;;1.20;0.60;;;;;;;;;;10267277;28;20126;-87
2022/10/08 00:50:01;;;;;;;2.67;1.05;;;;;;;;;;10283723;28;20411;-87
2022/10/08 00:55:06;;;;;;;1.73;0.88;;;;;;;;;;10293429;28;20051;-87
2022/10/08 01:00:14;;;;;;;3.00;1.00;;;;;;;;;;10304393;28;20050;-88
2022/10/08 01:05:27;;;;;;;1.80;1.05;;;;;;;;;;10283973;28;20035;-86
2022/10/08 01:10:42;;;;;;;0.60;0.60;;;;;;;;;;10274098;28;20417;-87
2022/10/08 01:15:55;;;;;;;2.10;0.75;;;;;;;;;;10253647;28;20064;-86
2022/10/08 01:21:07;;;;;;;3.15;0.90;;;;;;;;;;10283171;28;20039;-87
2022/10/08 01:26:45;;;;;;;1.17;0.70;;;;;;;;;;10281611;28;20053;-87
2022/10/08 01:31:53;;;;;;;2.22;0.80;;;;;;;;;;10246482;28;20050;-86
2022/10/08 01:36:59;;;;;;;1.25;0.80;;;;;;;;;;10280789;28;20051;-87
2022/10/08 01:42:20;;;;;;;2.20;0.82;;;;;;;;;;10189667;29;20147;-87
2022/10/08 01:47:27;;;;;;;2.15;1.17;;;;;;;;;;10190586;29;20044;-87
2022/10/08 01:52:35;;;;;;;4.90;1.60;;;;;;;;;;10180288;29;20059;-87
2022/10/08 01:57:40;;;;;;;3.03;1.67;;;;;;;;;;10181084;29;20147;-87
2022/10/08 02:02:45;;;;;;;2.42;1.10;;;;;;;;;;10172957;29;20550;-87
2022/10/08 02:07:49;;;;;;;6.25;1.58;;;;;;;;;;10203882;29;20514;-87
2022/10/08 02:12:53;;;;;;;4.35;1.20;;;;;;;;;;10254442;28;20046;-87
2022/10/08 02:18:06;;;;;;;1.80;1.10;;;;;;;;;;10297158;28;20049;-87
2022/10/08 02:23:18;;;;;;;1.95;0.95;;;;;;;;;;10282210;28;20125;-87
2022/10/08 02:28:29;;;;;;;2.35;1.10;;;;;;;;;;10307983;28;20532;-88
2022/10/08 02:33:37;;;;;;;1.75;0.90;;;;;;;;;;10319302;28;20050;-87
2022/10/08 02:38:45;;;;;;;2.15;1.20;;;;;;;;;;10310177;28;20050;-88
2022/10/08 02:43:50;;;;;;;3.25;1.27;;;;;;;;;;10309124;28;20413;-87
2022/10/08 02:49:00;;;;;;;3.20;1.55;;;;;;;;;;10308194;28;20066;-87
2022/10/08 02:54:04;;;;;;;1.55;1.00;;;;;;;;;;10310619;28;20050;-88
2022/10/08 02:59:09;;;;;;;1.98;0.90;;;;;;;;;;10311136;28;20051;-86
2022/10/08 03:04:22;;;;;;;2.90;1.10;;;;;;;;;;10302149;28;20038;-87
2022/10/08 03:09:29;;;;;;;2.60;0.90;;;;;;;;;;10325801;28;20056;-87
2022/10/08 03:14:36;;;;;;;2.20;1.08;;;;;;;;;;10300927;28;20049;-87
2022/10/08 03:19:41;;;;;;;1.67;0.90;;;;;;;;;;10301298;28;20047;-86
2022/10/08 03:24:44;;;;;;;1.45;0.70;;;;;;;;;;10285224;28;20043;-86
2022/10/08 03:29:48;;;;;;;1.13;0.63;;;;;;;;;;10303040;28;20051;-87
2022/10/08 03:34:54;;;;;;;2.47;1.17;;;;;;;;;;10310515;28;20043;-86
2022/10/08 03:39:57;;;;;;;1.97;1.03;;;;;;;;;;10307834;28;20047;-86
2022/10/08 03:45:01;;;;;;;3.53;1.05;;;;;;;;;;10319996;28;20505;-86
2022/10/08 03:50:07;;;;;;;2.10;0.93;;;;;;;;;;10280410;28;20564;-87
2022/10/08 03:55:10;;;;;;;2.35;1.20;;;;;;;;;;10252491;28;20448;-86
2022/10/08 04:00:14;;;;;;;2.78;1.10;;;;;;;;;;10252659;28;20070;-87
2022/10/08 04:05:19;;;;;;;4.38;0.90;;;;;;;;;;10236248;29;20060;-87
2022/10/08 04:10:23;;;;;;;1.75;0.93;;;;;;;;;;10235084;28;20070;-87
2022/10/08 04:15:26;;;;;;;2.35;0.93;;;;;;;;;;10234825;29;20395;-86
2022/10/08 04:20:33;;;;;;;2.47;1.00;;;;;;;;;;10252475;28;20043;-86
2022/10/08 04:25:37;;;;;;;3.47;1.27;;;;;;;;;;10251549;28;20097;-87
2022/10/08 04:30:40;;;;;;;1.35;1.10;;;;;;;;;;10234797;29;20046;-86
2022/10/08 04:35:45;;;;;;;1.38;1.13;;;;;;;;;;10258871;28;20062;-87
2022/10/08 04:40:49;;;;;;;0.93;0.90;;;;;;;;;;10234628;28;20106;-86
2022/10/08 04:45:52;;;;;;;1.52;1.20;;;;;;;;;;10249424;28;20122;-86
2022/10/08 04:50:59;;;;;;;2.00;1.20;;;;;;;;;;10240243;28;20089;-86
2022/10/08 04:56:12;;;;;;;1.45;0.95;;;;;;;;;;10218094;28;20706;-87
2022/10/08 05:01:17;;;;;;;1.60;0.82;;;;;;;;;;10253341;28;20043;-88
2022/10/08 05:06:24;;;;;;;4.63;1.10;;;;;;;;;;10256024;28;20046;-86
2022/10/08 05:11:29;;;;;;;1.88;0.85;;;;;;;;;;10250562;28;20051;-86
2022/10/08 05:16:32;;;;;;;1.75;1.00;;;;;;;;;;10249982;28;20076;-87
2022/10/08 05:21:37;;;;;;;3.22;1.00;;;;;;;;;;10233438;28;20402;-87
2022/10/08 05:26:41;;;;;;;1.48;0.85;;;;;;;;;;10241801;28;20391;-86
2022/10/08 05:32:01;;;;;;;2.05;1.10;;;;;;;;;;10250011;28;20074;-86
2022/10/08 05:37:06;;;;;;;2.53;1.02;;;;;;;;;;10241246;28;20498;-88
2022/10/08 05:42:09;;;;;;;3.72;1.10;;;;;;;;;;10250579;28;20581;-87
2022/10/08 05:47:13;;;;;;;5.90;1.33;;;;;;;;;;10273970;28;20043;-87
2022/10/08 05:52:18;;;;;;;2.85;0.80;;;;;;;;;;10297479;28;20046;-87
2022/10/08 05:57:21;;;;;;;1.40;0.82;;;;;;;;;;10272626;28;20047;-86
2022/10/08 06:02:25;;;;;;;3.03;0.88;;;;;;;;;;10289769;28;20058;-87
2022/10/08 06:07:30;;;;;;;1.52;1.23;;;;;;;;;;10247417;28;20394;-88
2022/10/08 06:12:34;;;;;;;3.83;1.00;;;;;;;;;;10271526;28;20065;-87
2022/10/08 06:17:38;;;;;;;2.42;1.10;;;;;;;;;;10271574;28;20600;-87
2022/10/08 06:22:43;;;;;;;4.03;0.95;;;;;;;;;;10273169;28;20042;-88
2022/10/08 06:27:47;;;;;;;1.10;0.82;;;;;;;;;;10280968;28;20053;-87
2022/10/08 06:32:51;;;;;;;1.35;1.15;;;;;;;;;;10302965;28;20081;-87
2022/10/08 06:37:56;;;;;;;2.92;1.20;;;;;;;;;;10284070;28;20082;-87
2022/10/08 06:43:05;;;;;;;3.22;1.70;;;;;;;;;;10297592;28;20049;-87
2022/10/08 06:48:09;;;;;;;3.55;1.83;;;;;;;;;;10325685;28;20046;-87
2022/10/08 06:53:15;;;;;;;4.85;2.25;;;;;;;;;;10285968;28;20133;-87
2022/10/08 06:58:18;;;;;;;2.80;1.58;;;;;;;;;;10309149;28;20069;-88
2022/10/08 07:03:22;;;;;;;4.63;1.13;;;;;;;;;;10307800;28;20065;-86
2022/10/08 07:08:27;;;;;;;16.73;2.60;;;;;;;;;;10328343;28;20593;-88
2022/10/08 07:13:31;;;;;;;5.07;1.50;;;;;;;;;;10310764;28;20471;-87
2022/10/08 07:18:35;;;;;;;2.55;0.68;;;;;;;;;;10326472;28;20058;-88
2022/10/08 07:23:41;;;;;;;7.38;0.98;;;;;;;;;;10301220;28;20101;-89
2022/10/08 07:28:49;;;;;;;5.15;1.60;;;;;;;;;;10268658;28;20102;-88
2022/10/08 07:33:57;;;;;;;5.95;1.20;;;;;;;;;;10318733;28;20441;-89
2022/10/08 07:53:05;;;;;;;7.68;1.70;;;;;;;;;;10304041;28;20039;-89
2022/10/08 07:58:08;;;;;;;6.93;1.83;;;;;;;;;;10270452;28;20053;-88
2022/10/08 08:03:14;;;;;;;8.13;2.22;;;;;;;;;;10286790;28;20138;-88
2022/10/08 08:08:19;;;;;;;5.20;1.02;;;;;;;;;;10268839;28;20047;-88
2022/10/08 08:13:22;;;;;;;4.82;1.50;;;;;;;;;;10286600;28;20151;-88
2022/10/08 09:13:43;;;;;;;;;;;;;;;;;;10291909;28;20039;-88
2022/10/08 09:47:03;;;;;;;4.55;1.42;;;;;;;;;;10329020;28;20038;-88
2022/10/08 09:52:12;;;;;;;2.38;1.02;;;;;;;;;;10316791;28;20604;-87
2022/10/08 10:52:49;;;;;;;5.30;1.40;;;;;;;;;;10287808;28;20046;-88
2022/10/08 10:58:16;;;;;;;6.95;1.65;;;;;;;;;;10270374;28;20689;-87
2022/10/08 11:03:27;;;;;;;4.65;1.65;;;;;;;;;;10286924;28;20058;-87
2022/10/08 11:08:40;;;;;;;2.28;1.00;;;;;;;;;;10285086;28;20046;-88
2022/10/08 11:13:54;;;;;;;4.25;1.38;;;;;;;;;;10269992;28;20049;-87
2022/10/08 11:18:59;;;;;;;4.78;1.50;;;;;;;;;;10285668;28;20126;-88
2022/10/08 11:24:29;;;;;;;6.97;1.47;;;;;;;;;;10285466;28;20049;-84
2022/10/08 11:29:40;;;;;;;2.10;1.02;;;;;;;;;;10284797;28;20054;-87
2022/10/08 11:34:50;;;;;;;3.63;1.20;;;;;;;;;;10269429;28;20051;-87
2022/10/08 11:46:30;;;;;;;3.93;1.47;;;;;;;;;;10269017;28;20035;-87
2022/10/08 11:51:39;;;;;;;3.72;0.98;;;;;;;;;;10271543;28;20126;-87
2022/10/08 12:10:45;;;;;;;0.60;0.47;;;;;;;;;;10334887;28;20038;-87
2022/10/08 12:16:03;;;;;;;2.33;0.90;;;;;;;;;;10349172;28;20419;-88
2022/10/08 12:21:49;;;;;;;2.70;0.75;;;;;;;;;;10334035;28;20054;-87
2022/10/08 12:27:23;;;;;;;0.68;0.40;;;;;;;;;;10316890;28;20046;-87
2022/10/08 12:32:30;;;;;;;1.20;0.52;;;;;;;;;;10332447;28;20134;-87
2022/10/08 12:37:46;;;;;;;2.15;0.82;;;;;;;;;;10334813;28;20066;-88
2022/10/08 12:49:56;;;;;;;1.88;0.68;;;;;;;;;;10294264;28;20504;-88
2022/10/08 12:55:02;;;;;;;1.52;0.50;;;;;;;;;;10333510;28;20066;-87
2022/10/08 13:35:05;;;;;;;1.33;0.57;;;;;;;;;;10253288;28;20095;-88
2022/10/08 13:40:19;;;;;;;2.58;0.75;;;;;;;;;;10250913;28;20061;-88
2022/10/08 13:45:28;;;;;;;2.95;1.35;;;;;;;;;;10250921;28;20049;-88
2022/10/08 13:50:40;;;;;;;4.32;0.80;;;;;;;;;;10255668;28;20406;-88
2022/10/08 13:55:46;;;;;;;5.70;1.77;;;;;;;;;;10240246;28;20175;-88
2022/10/08 14:00:49;;;;;;;5.80;1.20;;;;;;;;;;10250783;28;20545;-88
2022/10/08 14:05:56;;;;;;;1.83;0.60;;;;;;;;;;10249960;28;20051;-86
2022/10/08 14:11:00;;;;;;;1.67;0.60;;;;;;;;;;10276642;28;20149;-87
2022/10/08 14:16:06;;;;;;;3.50;1.30;;;;;;;;;;10289642;28;20515;-87
2022/10/08 14:21:14;;;;;;;2.60;0.90;;;;;;;;;;10289558;28;20121;-88
2022/10/08 14:26:21;;;;;;;2.20;0.75;;;;;;;;;;10289733;28;20089;-87
2022/10/08 14:31:24;;;;;;;1.48;0.60;;;;;;;;;;10288279;28;20133;-89
2022/10/08 14:36:34;;;;;;;2.03;0.40;;;;;;;;;;10290272;28;20134;-89
2022/10/08 14:41:41;;;;;;;2.17;0.55;;;;;;;;;;10288732;28;20050;-87
2022/10/08 14:46:46;;;;;;;1.50;0.60;;;;;;;;;;10288806;28;20183;-88
2022/10/08 14:51:51;;;;;;;2.40;0.65;;;;;;;;;;10287368;28;20051;-88
2022/10/08 14:56:55;;;;;;;1.23;0.30;;;;;;;;;;10281598;28;20050;-85
2022/10/08 15:01:58;;;;;;;2.47;0.50;;;;;;;;;;10304030;28;20059;-88
2022/10/08 15:07:04;;;;;;;1.00;0.50;;;;;;;;;;10288319;28;20055;-88
2022/10/08 15:12:08;;;;;;;2.50;0.80;;;;;;;;;;10291448;28;20114;-89
2022/10/08 15:17:11;;;;;;;1.67;0.68;;;;;;;;;;10308369;28;20053;-88
2022/10/08 15:22:16;;;;;;;0.30;0.30;;;;;;;;;;10302126;28;20094;-88
2022/10/08 15:27:20;;;;;;;1.50;0.40;;;;;;;;;;10286594;28;20111;-88
2022/10/08 15:32:24;;;;;;;1.23;0.40;;;;;;;;;;10287143;28;20050;-88
2022/10/08 15:37:30;;;;;;;1.60;0.47;;;;;;;;;;10288169;28;20133;-87
2022/10/08 15:42:39;;;;;;;6.05;1.20;;;;;;;;;;10324585;28;20046;-88
2022/10/08 15:47:43;;;;;;;1.92;0.80;;;;;;;;;;10283794;28;20420;-88
2022/10/08 15:52:47;;;;;;;2.35;1.30;;;;;;;;;;10310153;28;20121;-88
2022/10/08 15:57:51;;;;;;;0.75;0.45;;;;;;;;;;10304852;28;20057;-88
2022/10/08 16:02:56;;;;;;;1.77;0.47;;;;;;;;;;10268526;28;20138;-89
2022/10/08 16:08:01;;;;;;;3.30;0.50;;;;;;;;;;10285024;28;20114;-88
2022/10/08 16:13:07;;;;;;;1.58;0.32;;;;;;;;;;10268429;28;20047;-87
2022/10/08 16:18:12;;;;;;;0.95;0.60;;;;;;;;;;10270148;28;20077;-88
2022/10/08 16:23:18;;;;;;;1.05;0.55;;;;;;;;;;10306820;28;20061;-88
2022/10/08 16:28:24;;;;;;;0.70;0.40;;;;;;;;;;10259968;28;20046;-88
2022/10/08 16:33:28;;;;;;;;;;;;;;;;;;10325164;28;20050;-88
2022/10/08 16:38:39;;;;;;;1.13;0.80;;;;;;;;;;10294844;28;20308;-87
2022/10/08 16:43:45;;;;;;;2.42;0.82;;;;;;;;;;10290383;28;20496;-86
2022/10/08 16:48:55;;;;;;;1.42;0.70;;;;;;;;;;10279302;28;20336;-87
2022/10/08 16:54:04;;;;;;;1.55;0.70;;;;;;;;;;10326805;28;20337;-87
2022/10/08 16:59:12;;;;;;;2.60;0.70;;;;;;;;;;10289293;28;20507;-88
2022/10/08 17:04:18;;;;;;;1.23;0.60;;;;;;;;;;10274268;28;20594;-87
2022/10/08 17:09:23;;;;;;;3.28;0.60;;;;;;;;;;10307586;28;20493;-88
2022/10/08 17:14:28;;;;;;;2.42;0.38;;;;;;;;;;10297077;28;20524;-87
2022/10/08 17:19:32;;;;;;;1.77;0.50;;;;;;;;;;10290907;28;20081;-85
2022/10/08 17:24:37;;;;;;;1.58;0.50;;;;;;;;;;10283037;28;20559;-88
2022/10/08 17:29:44;;;;;;;3.28;0.60;;;;;;;;;;10290814;28;20050;-87
2022/10/08 17:34:47;;;;;;;1.75;0.60;;;;;;;;;;10289708;28;20190;-87
2022/10/08 17:39:57;;;;;;;1.88;0.57;;;;;;;;;;10289657;28;20137;-88
2022/10/08 17:45:00;;;;;;;2.72;1.08;;;;;;;;;;10274049;28;20540;-88
2022/10/08 17:50:04;;;;;;;2.70;1.30;;;;;;;;;;10272826;28;20413;-88
2022/10/08 17:55:11;;;;;;;;;;;;;;;;;;10291585;28;20053;-87
2022/10/08 18:00:21;;;;;;;4.05;1.27;;;;;;;;;;10290522;28;19922;-86
2022/10/08 18:05:25;;;;;;;4.43;1.92;;;;;;;;;;10290839;28;20043;-87
2022/10/08 18:10:36;;;;;;;;;;;;;;;;;;10273392;28;20063;-88
2022/10/08 18:15:42;;;;;;;4.97;2.22;;;;;;;;;;10289810;28;19996;-88
2022/10/08 18:20:56;;;;;;;6.47;3.33;;;;;;;;;;10315393;28;20453;-88
2022/10/08 18:26:17;;;;;;;5.22;2.90;;;;;;;;;;10260564;28;20046;-88
2022/10/08 18:31:24;;;;;;;3.92;2.78;;;;;;;;;;10312777;28;20049;-87
2022/10/08 18:36:30;;;;;;;4.18;2.70;;;;;;;;;;10322335;28;20057;-87
2022/10/08 18:41:37;;;;;;;4.63;3.00;;;;;;;;;;10289163;28;20413;-88
2022/10/08 18:46:44;;;;;;;6.93;2.80;;;;;;;;;;10314812;28;20054;-86
2022/10/08 18:51:52;;;;;;;5.25;2.47;;;;;;;;;;10306327;28;20055;-87
2022/10/08 18:56:59;;;;;;;4.30;2.28;;;;;;;;;;10279359;28;20046;-87
2022/10/08 19:02:03;;;;;;;5.32;2.85;;;;;;;;;;10330328;28;20046;-87
2022/10/08 19:07:06;;;;;;;7.00;3.40;;;;;;;;;;10311367;28;20046;-87
2022/10/08 19:12:11;;;;;;;5.78;2.88;;;;;;;;;;10310735;28;20073;-87
2022/10/08 19:17:15;;;;;;;8.50;3.15;;;;;;;;;;10328102;28;20425;-87
2022/10/08 19:22:18;;;;;;;7.63;3.67;;;;;;;;;;10300581;28;20347;-87
2022/10/08 19:27:29;;;;;;;9.00;4.32;;;;;;;;;;10328682;28;20521;-88
2022/10/08 19:32:33;;;;;;;6.32;3.35;;;;;;;;;;10311502;28;20106;-87
2022/10/08 19:37:36;;;;;;;5.45;2.75;;;;;;;;;;10312060;28;20145;-87
2022/10/08 19:42:45;;;;;;;6.40;2.92;;;;;;;;;;10311757;28;20406;-86
2022/10/08 19:47:49;;;;;;;5.63;2.97;;;;;;;;;;10322716;28;20054;-87
2022/10/08 19:52:55;;;;;;;4.30;2.75;;;;;;;;;;10322799;28;20141;-87
2022/10/08 19:58:00;;;;;;;;;;;;;;;;;;10324247;28;20097;-88
2022/10/08 20:03:08;;;;;;;6.72;3.17;;;;;;;;;;10294823;28;19922;-87
2022/10/08 20:08:15;;;;;;;6.38;1.80;;;;;;;;;;10315639;28;20077;-87
2022/10/08 20:13:20;;;;;;;4.40;2.08;;;;;;;;;;10290712;28;20137;-86
2022/10/08 20:18:25;;;;;;;7.05;2.85;;;;;;;;;;10314064;28;20043;-88
2022/10/08 20:23:28;;;;;;;5.72;2.70;;;;;;;;;;10287162;28;20146;-88
2022/10/08 20:28:33;;;;;;;4.72;2.20;;;;;;;;;;10304867;28;20102;-87
2022/10/08 20:33:39;;;;;;;3.33;1.90;;;;;;;;;;10292038;28;20051;-87
2022/10/08 20:38:43;;;;;;;3.37;2.07;;;;;;;;;;10309198;28;20082;-87
2022/10/08 20:43:50;;;;;;;6.00;3.05;;;;;;;;;;10315270;28;20050;-87
2022/10/08 20:48:56;;;;;;;10.35;3.65;;;;;;;;;;10276702;28;20138;-87
2022/10/08 20:54:05;;;;;;;6.47;3.30;;;;;;;;;;10283543;28;20086;-87
2022/10/08 20:59:13;;;;;;;4.43;2.70;;;;;;;;;;10308556;28;20464;-87
2022/10/08 21:04:20;;;;;;;3.50;1.90;;;;;;;;;;10292717;28;20082;-85
2022/10/08 21:09:27;;;;;;;2.50;1.63;;;;;;;;;;10278737;28;20043;-87
2022/10/08 21:14:32;;;;;;;2.38;1.58;;;;;;;;;;10325201;28;20046;-87
2022/10/08 21:19:42;;;;;;;4.75;1.73;;;;;;;;;;10304067;28;20051;-86
2022/10/08 21:24:45;;;;;;;4.68;1.77;;;;;;;;;;10289554;28;20094;-88
2022/10/08 21:29:51;;;;;;;4.65;2.47;;;;;;;;;;10277997;28;20138;-87
2022/10/08 21:34:55;;;;;;;2.50;1.75;;;;;;;;;;10262303;28;20421;-87
2022/10/08 21:39:59;;;;;;;3.63;2.30;;;;;;;;;;10250774;28;20047;-87
2022/10/08 21:45:07;;;;;;;2.33;1.55;;;;;;;;;;10257927;28;20047;-85
2022/10/08 21:50:11;;;;;;;3.25;1.40;;;;;;;;;;10282101;28;20110;-87
2022/10/08 21:55:15;;;;;;;3.42;1.88;;;;;;;;;;10325686;28;20047;-87
2022/10/08 22:00:31;;;;;;;5.40;2.67;;;;;;;;;;10287171;28;20531;-86
2022/10/08 22:05:37;;;;;;;6.38;2.80;;;;;;;;;;10272871;28;20079;-86
2022/10/08 22:10:41;;;;;;;;;;;;;;;;;;10250008;28;20047;-86
2022/10/08 22:15:54;;;;;;;3.97;2.05;;;;;;;;;;10250651;28;19929;-84
2022/10/08 22:21:01;;;;;;;4.35;2.35;;;;;;;;;;10249628;28;20142;-85
2022/10/08 22:26:11;;;;;;;3.53;1.63;;;;;;;;;;10250928;28;20091;-85
2022/10/08 22:31:18;;;;;;;5.70;1.60;;;;;;;;;;10246257;28;20103;-84
2022/10/08 22:36:23;;;;;;;3.90;1.90;;;;;;;;;;10246913;28;20089;-85
2022/10/08 22:41:30;;;;;;;2.53;1.40;;;;;;;;;;10247800;28;20054;-83
2022/10/08 22:46:37;;;;;;;4.07;1.50;;;;;;;;;;10246779;28;20134;-83
2022/10/08 22:51:45;;;;;;;2.38;1.30;;;;;;;;;;10246537;28;20439;-85
2022/10/08 22:56:50;;;;;;;2.97;1.40;;;;;;;;;;10263191;28;20529;-85
2022/10/08 23:01:58;;;;;;;3.80;1.70;;;;;;;;;;10284987;28;20126;-85
2022/10/08 23:07:02;;;;;;;2.58;1.70;;;;;;;;;;10287075;28;20101;-86
2022/10/08 23:12:05;;;;;;;3.78;1.88;;;;;;;;;;10314033;28;20052;-85
2022/10/08 23:17:11;;;;;;;2.25;1.60;;;;;;;;;;10290716;28;20051;-85
2022/10/08 23:22:15;;;;;;;3.20;1.88;;;;;;;;;;10285848;28;20070;-85
2022/10/08 23:27:18;;;;;;;2.92;1.90;;;;;;;;;;10269871;28;20065;-85
2022/10/08 23:32:23;;;;;;;4.78;2.33;;;;;;;;;;10287463;28;20130;-86
2022/10/08 23:37:26;;;;;;;4.45;2.17;;;;;;;;;;10275891;28;20051;-86
2022/10/08 23:42:33;;;;;;;6.70;3.20;;;;;;;;;;10286334;28;20066;-84
2022/10/08 23:47:41;;;;;;;5.43;2.88;;;;;;;;;;10249256;28;20057;-84
2022/10/08 23:52:49;;;;;;;5.60;2.88;;;;;;;;;;10253053;28;20514;-85
2022/10/08 23:57:54;;;;;;;8.63;3.40;;;;;;;;;;10253361;28;20047;-85
